createdAt,value
2018-10-21T00:02:13.649Z,14.70
2018-10-21T00:04:42.658Z,13.30
2018-10-21T00:07:11.629Z,12.88
2018-10-21T00:09:40.655Z,14.10
2018-10-21T00:12:09.590Z,12.70
2018-10-21T00:14:38.734Z,14.15
2018-10-21T00:17:07.708Z,12.93
2018-10-21T00:19:36.789Z,13.62
2018-10-21T00:22:05.830Z,13.85
2018-10-21T00:24:34.769Z,12.30
2018-10-21T00:27:03.851Z,14.23
2018-10-21T00:29:32.861Z,13.13
2018-10-21T00:32:01.713Z,13.58
2018-10-21T00:34:30.745Z,13.90
2018-10-21T00:36:59.768Z,13.20
2018-10-21T00:39:28.865Z,13.00
2018-10-21T00:41:57.833Z,14.18
2018-10-21T00:44:26.893Z,12.58
2018-10-21T00:46:55.737Z,13.35
2018-10-21T00:49:25.027Z,12.90
2018-10-21T00:51:54.214Z,12.75
2018-10-21T00:54:23.442Z,12.82
2018-10-21T00:56:52.318Z,13.00
2018-10-21T00:59:21.313Z,12.18
2018-10-21T01:01:50.191Z,12.58
2018-10-21T01:04:19.313Z,11.90
2018-10-21T01:06:48.554Z,13.45
2018-10-21T01:09:17.755Z,13.98
2018-10-21T01:11:46.873Z,13.80
2018-10-21T01:14:16.036Z,13.13
2018-10-21T01:16:53.775Z,14.05
2018-10-21T01:19:29.462Z,13.85
2018-10-21T01:22:02.758Z,13.15
2018-10-21T01:24:38.891Z,12.98
2018-10-21T01:27:13.288Z,13.28
2018-10-21T01:29:50.008Z,14.40
2018-10-21T01:32:23.528Z,12.93
2018-10-21T01:34:59.817Z,13.22
2018-10-21T01:37:29.239Z,13.05
2018-10-21T01:40:34.515Z,13.55
2018-10-21T01:43:03.942Z,12.78
2018-10-21T01:45:33.066Z,12.68
2018-10-21T01:48:03.183Z,13.38
2018-10-21T01:50:32.450Z,12.68
2018-10-21T01:53:02.806Z,11.83
2018-10-21T01:55:31.924Z,13.25
2018-10-21T01:58:01.540Z,14.25
2018-10-21T02:00:31.284Z,14.40
2018-10-21T02:03:00.444Z,15.50
2018-10-21T02:05:29.718Z,13.38
2018-10-21T02:07:58.572Z,14.83
2018-10-21T02:10:27.599Z,13.55
2018-10-21T02:12:56.910Z,12.98
2018-10-21T02:15:26.201Z,15.35
2018-10-21T02:17:55.283Z,14.43
2018-10-21T02:20:24.694Z,13.03
2018-10-21T02:22:53.910Z,13.58
2018-10-21T02:25:23.254Z,13.20
2018-10-21T02:27:53.348Z,14.25
2018-10-21T02:30:23.557Z,14.55
2018-10-21T02:32:53.210Z,15.68
2018-10-21T02:35:22.570Z,12.95
2018-10-21T02:37:51.894Z,14.05
2018-10-21T02:41:59.064Z,13.83
2018-10-21T02:44:27.999Z,13.10
2018-10-21T02:46:57.653Z,12.35
2018-10-21T02:49:26.660Z,13.20
2018-10-21T02:52:00.738Z,13.90
2018-10-21T02:54:30.709Z,13.35
2018-10-21T02:56:59.784Z,13.55
2018-10-21T02:59:28.645Z,13.58
2018-10-21T03:01:57.463Z,15.32
2018-10-21T03:04:26.516Z,14.85
2018-10-21T03:06:55.492Z,15.50
2018-10-21T03:09:24.486Z,14.18
2018-10-21T03:11:53.473Z,13.95
2018-10-21T03:14:22.467Z,14.58
2018-10-21T03:16:51.529Z,15.90
2018-10-21T03:19:20.720Z,13.65
2018-10-21T03:21:49.942Z,15.03
2018-10-21T03:24:19.102Z,15.25
2018-10-21T03:26:49.043Z,14.43
2018-10-21T03:29:18.162Z,13.95
2018-10-21T03:31:47.221Z,13.98
2018-10-21T03:34:16.267Z,15.70
2018-10-21T03:36:45.263Z,16.25
2018-10-21T03:39:14.273Z,17.80
2018-10-21T03:41:43.398Z,18.07
2018-10-21T03:44:12.438Z,18.20
2018-10-21T03:46:41.666Z,19.80
2018-10-21T03:49:10.971Z,19.75
2018-10-21T03:51:39.882Z,20.02
2018-10-21T03:54:08.879Z,18.20
2018-10-21T03:56:38.190Z,19.65
2018-10-21T03:59:07.146Z,19.52
2018-10-21T04:01:36.143Z,19.20
2018-10-21T04:04:06.022Z,18.77
2018-10-21T04:06:35.022Z,19.60
2018-10-21T04:09:05.232Z,20.20
2018-10-21T04:11:34.637Z,20.08
2018-10-21T04:14:03.846Z,18.70
2018-10-21T04:16:32.904Z,19.45
2018-10-21T04:19:02.001Z,19.73
2018-10-21T04:21:31.295Z,18.90
2018-10-21T04:24:00.763Z,19.30
2018-10-21T04:26:29.887Z,19.40
2018-10-21T04:28:59.202Z,18.25
2018-10-21T04:31:28.402Z,18.55
2018-10-21T04:33:57.546Z,17.70
2018-10-21T04:36:28.815Z,21.05
2018-10-21T04:40:10.131Z,18.60
2018-10-21T04:42:39.081Z,17.27
2018-10-21T04:45:08.757Z,20.05
2018-10-21T04:47:37.653Z,20.37
2018-10-21T04:50:07.873Z,20.62
2018-10-21T04:52:36.986Z,20.15
2018-10-21T04:55:09.217Z,19.30
2018-10-21T04:57:39.737Z,18.07
2018-10-21T05:00:14.745Z,20.27
2018-10-21T05:02:43.922Z,17.07
2018-10-21T05:05:14.060Z,19.85
2018-10-21T05:07:43.395Z,20.23
2018-10-21T05:10:28.964Z,18.12
2018-10-21T05:12:58.171Z,19.55
2018-10-21T05:15:28.606Z,19.90
2018-10-21T05:17:58.483Z,18.67
2018-10-21T05:20:27.804Z,18.70
2018-10-21T05:22:56.934Z,18.60
2018-10-21T05:25:25.894Z,17.57
2018-10-21T05:27:54.870Z,18.57
2018-10-21T05:30:23.875Z,18.15
2018-10-21T05:32:52.783Z,18.60
2018-10-21T05:35:22.399Z,20.62
2018-10-21T05:37:51.527Z,17.75
2018-10-21T05:40:21.766Z,19.45
2018-10-21T05:42:51.459Z,19.82
2018-10-21T05:45:20.737Z,20.20
2018-10-21T05:47:49.761Z,20.08
2018-10-21T05:50:18.619Z,18.57
2018-10-21T05:52:47.950Z,18.90
2018-10-21T05:55:17.017Z,20.62
2018-10-21T05:57:46.124Z,20.35
2018-10-21T06:00:18.011Z,17.92
2018-10-21T06:02:47.291Z,19.27
2018-10-21T06:05:33.987Z,20.65
2018-10-21T06:08:03.064Z,18.92
2018-10-21T06:10:32.277Z,18.73
2018-10-21T06:13:01.642Z,19.70
2018-10-21T06:15:30.902Z,19.92
2018-10-21T06:17:59.843Z,20.75
2018-10-21T06:20:34.217Z,19.42
2018-10-21T06:23:03.322Z,20.92
2018-10-21T06:25:32.391Z,19.42
2018-10-21T06:28:01.412Z,20.37
2018-10-21T06:30:30.778Z,20.15
2018-10-21T06:32:59.907Z,20.43
2018-10-21T06:35:29.006Z,21.40
2018-10-21T06:37:58.069Z,21.50
2018-10-21T06:40:27.176Z,20.90
2018-10-21T06:42:56.934Z,22.80
2018-10-21T06:45:26.126Z,20.88
2018-10-21T06:47:54.870Z,23.18
2018-10-21T06:50:24.313Z,20.97
2018-10-21T06:52:53.433Z,21.65
2018-10-21T06:55:22.562Z,20.15
2018-10-21T06:57:51.723Z,20.35
2018-10-21T07:00:20.742Z,21.02
2018-10-21T07:02:49.693Z,20.15
2018-10-21T07:05:29.505Z,22.05
2018-10-21T07:07:58.615Z,20.10
2018-10-21T07:10:27.716Z,21.45
2018-10-21T07:12:56.787Z,20.72
2018-10-21T07:15:26.196Z,19.20
2018-10-21T07:17:55.179Z,20.92
2018-10-21T07:20:24.519Z,18.87
2018-10-21T07:22:53.656Z,19.42
2018-10-21T07:25:22.659Z,18.05
2018-10-21T07:27:51.983Z,18.52
2018-10-21T07:30:21.110Z,20.70
2018-10-21T07:32:50.127Z,21.05
2018-10-21T07:35:19.132Z,19.02
2018-10-21T07:37:48.378Z,20.90
2018-10-21T07:40:17.523Z,20.50
2018-10-21T07:42:46.494Z,19.92
2018-10-21T07:45:18.043Z,18.10
2018-10-21T07:47:47.219Z,18.37
2018-10-21T07:50:16.334Z,19.85
2018-10-21T07:52:45.506Z,17.48
2018-10-21T07:55:19.093Z,18.75
2018-10-21T07:57:48.541Z,19.10
2018-10-21T08:00:18.163Z,18.82
2018-10-21T08:02:47.390Z,19.48
2018-10-21T08:05:27.869Z,18.42
2018-10-21T08:08:15.474Z,19.82
2018-10-21T08:10:45.027Z,19.75
2018-10-21T08:13:15.456Z,19.20
2018-10-21T08:15:45.042Z,19.77
2018-10-21T08:18:14.841Z,18.80
2018-10-21T08:20:45.068Z,20.00
2018-10-21T08:23:15.065Z,20.32
2018-10-21T08:25:45.292Z,18.80
2018-10-21T08:28:14.591Z,18.65
2018-10-21T08:30:43.555Z,18.25
2018-10-21T08:33:12.682Z,18.35
2018-10-21T08:35:41.885Z,18.32
2018-10-21T08:38:10.960Z,19.17
2018-10-21T08:40:40.098Z,36.60
2018-10-21T08:43:09.325Z,17.50
2018-10-21T08:45:38.468Z,16.55
2018-10-21T08:48:07.643Z,17.80
2018-10-21T08:50:36.720Z,16.73
2018-10-21T08:53:05.650Z,15.77
2018-10-21T08:55:34.766Z,16.97
2018-10-21T08:58:03.837Z,17.57
2018-10-21T09:00:33.006Z,16.10
2018-10-21T09:03:01.907Z,15.60
2018-10-21T09:05:30.915Z,17.40
2018-10-21T09:08:00.008Z,16.20
2018-10-21T09:10:29.004Z,17.30
2018-10-21T09:12:58.068Z,15.73
2018-10-21T09:15:27.243Z,16.17
2018-10-21T09:17:56.161Z,15.83
2018-10-21T09:20:24.992Z,16.83
2018-10-21T09:22:54.088Z,16.80
2018-10-21T09:25:23.256Z,15.13
2018-10-21T09:27:52.157Z,17.50
2018-10-21T09:30:21.053Z,16.63
2018-10-21T09:32:50.052Z,13.40
2018-10-21T09:35:19.657Z,13.90
2018-10-21T09:37:48.406Z,12.43
2018-10-21T09:40:19.015Z,11.53
2018-10-21T09:42:49.366Z,10.60
2018-10-21T09:45:19.490Z,11.83
2018-10-21T09:47:48.369Z,11.60
2018-10-21T09:50:17.092Z,10.10
2018-10-21T09:52:45.829Z,9.43
2018-10-21T09:55:19.596Z,9.57
2018-10-21T09:57:48.933Z,9.33
2018-10-21T10:00:22.924Z,7.60
2018-10-21T10:02:56.898Z,7.60
2018-10-21T10:05:25.585Z,7.60
2018-10-21T10:07:55.226Z,8.00
2018-10-21T10:10:24.617Z,7.63
2018-10-21T10:12:53.357Z,7.30
2018-10-21T10:15:22.122Z,7.43
2018-10-21T10:17:51.007Z,6.10
2018-10-21T10:20:19.694Z,6.43
2018-10-21T10:22:48.518Z,6.63
2018-10-21T10:25:17.349Z,6.60
2018-10-21T10:27:46.177Z,6.80
2018-10-21T10:30:14.961Z,6.47
2018-10-21T10:32:44.494Z,6.60
2018-10-21T10:35:14.268Z,5.93
2018-10-21T10:37:43.215Z,5.70
2018-10-21T10:40:13.155Z,5.50
2018-10-21T10:42:42.286Z,5.60
2018-10-21T10:45:10.967Z,6.13
2018-10-21T10:47:39.923Z,10.87
2018-10-21T10:50:10.248Z,4.33
2018-10-21T10:52:39.158Z,5.17
2018-10-21T10:55:08.528Z,4.30
2018-10-21T10:57:37.267Z,3.23
2018-10-21T11:00:08.696Z,3.70
2018-10-21T11:02:37.406Z,3.30
2018-10-21T11:05:06.771Z,10.13
2018-10-21T11:07:35.525Z,3.87
2018-10-21T11:10:04.684Z,3.77
2018-10-21T11:12:33.492Z,4.43
2018-10-21T11:15:02.298Z,3.80
2018-10-21T11:17:31.057Z,4.03
2018-10-21T11:19:59.876Z,4.20
2018-10-21T11:22:28.767Z,3.73
2018-10-21T11:24:57.599Z,4.60
2018-10-21T11:27:26.422Z,4.10
2018-10-21T11:29:55.454Z,4.60
2018-10-21T11:32:24.720Z,4.37
2018-10-21T11:34:53.564Z,6.10
2018-10-21T11:37:22.368Z,4.70
2018-10-21T11:39:51.220Z,5.13
2018-10-21T11:42:20.201Z,6.57
2018-10-21T11:44:49.015Z,7.20
2018-10-21T11:47:17.958Z,6.30
2018-10-21T11:49:46.900Z,6.10
2018-10-21T11:52:15.787Z,5.83
2018-10-21T11:54:44.610Z,5.53
2018-10-21T11:57:13.465Z,5.43
2018-10-21T11:59:42.273Z,5.60
2018-10-21T12:02:11.265Z,4.70
2018-10-21T12:04:40.182Z,5.07
2018-10-21T12:07:09.041Z,5.10
2018-10-21T12:09:37.904Z,5.10
2018-10-21T12:12:06.770Z,4.30
2018-10-21T12:14:35.444Z,3.77
2018-10-21T12:17:04.253Z,3.80
2018-10-21T12:19:33.145Z,3.20
2018-10-21T12:22:01.994Z,3.67
2018-10-21T12:24:30.808Z,3.27
2018-10-21T12:26:59.541Z,3.77
2018-10-21T12:29:28.315Z,3.30
2018-10-21T12:31:57.113Z,2.93
2018-10-21T12:34:26.287Z,2.67
2018-10-21T12:36:55.188Z,2.90
2018-10-21T12:39:24.191Z,3.50
2018-10-21T12:41:53.152Z,3.73
2018-10-21T12:44:21.898Z,3.40
2018-10-21T12:46:50.597Z,2.87
2018-10-21T12:49:19.587Z,3.37
2018-10-21T12:51:48.372Z,2.70
2018-10-21T12:54:17.278Z,3.43
2018-10-21T12:56:46.006Z,3.50
2018-10-21T12:59:15.051Z,2.80
2018-10-21T13:01:43.812Z,2.80
2018-10-21T13:04:12.833Z,3.57
2018-10-21T13:06:41.543Z,3.00
2018-10-21T13:09:10.426Z,3.23
2018-10-21T13:11:39.142Z,2.70
2018-10-21T13:14:08.165Z,3.77
2018-10-21T13:16:37.017Z,3.03
2018-10-21T13:19:05.869Z,2.80
2018-10-21T13:21:34.613Z,3.10
2018-10-21T13:24:03.572Z,3.10
2018-10-21T13:26:32.350Z,3.77
2018-10-21T13:29:01.354Z,3.80
2018-10-21T13:31:30.384Z,3.47
2018-10-21T13:33:59.190Z,3.47
2018-10-21T13:36:27.977Z,3.00
2018-10-21T13:38:56.806Z,3.17
2018-10-21T13:41:25.592Z,3.50
2018-10-21T13:43:54.306Z,3.00
2018-10-21T13:46:23.137Z,3.70
2018-10-21T13:48:52.114Z,2.73
2018-10-21T13:51:21.231Z,2.90
2018-10-21T13:53:49.969Z,2.92
2018-10-21T13:56:18.839Z,4.63
2018-10-21T13:58:47.640Z,3.73
2018-10-21T14:01:16.496Z,3.37
2018-10-21T14:03:45.527Z,3.17
2018-10-21T14:06:14.556Z,3.50
2018-10-21T14:08:43.341Z,2.63
2018-10-21T14:11:12.186Z,3.60
2018-10-21T14:13:41.112Z,3.33
2018-10-21T14:16:10.059Z,3.17
2018-10-21T14:18:38.760Z,3.27
2018-10-21T14:21:07.573Z,4.67
2018-10-21T14:23:36.379Z,3.40
2018-10-21T14:26:05.526Z,3.17
2018-10-21T14:28:34.339Z,4.00
2018-10-21T14:31:03.220Z,3.77
2018-10-21T14:33:32.127Z,4.17
2018-10-21T14:36:00.888Z,3.40
2018-10-21T14:38:29.909Z,2.77
2018-10-21T14:40:58.652Z,3.17
2018-10-21T14:43:27.427Z,4.58
2018-10-21T14:45:56.407Z,3.50
2018-10-21T14:48:25.439Z,3.85
2018-10-21T14:50:54.291Z,7.20
2018-10-21T14:53:23.161Z,4.08
2018-10-21T14:55:52.004Z,4.22
2018-10-21T14:58:20.774Z,4.45
2018-10-21T15:00:49.565Z,3.83
2018-10-21T15:03:18.405Z,3.37
2018-10-21T15:05:47.296Z,4.03
2018-10-21T15:08:16.156Z,2.87
2018-10-21T15:10:44.916Z,3.30
2018-10-21T15:13:13.909Z,3.72
2018-10-21T15:15:42.896Z,3.15
2018-10-21T15:18:11.729Z,3.15
2018-10-21T15:20:40.632Z,3.67
2018-10-21T15:23:09.434Z,3.72
2018-10-21T15:25:38.291Z,2.75
2018-10-21T15:28:07.116Z,3.15
2018-10-21T15:30:35.859Z,2.90
2018-10-21T15:33:04.676Z,3.10
2018-10-21T15:35:33.445Z,3.05
2018-10-21T15:38:02.378Z,3.27
2018-10-21T15:40:31.127Z,3.33
2018-10-21T15:42:59.890Z,3.65
2018-10-21T15:45:28.814Z,2.87
2018-10-21T15:47:57.621Z,2.90
2018-10-21T15:50:26.516Z,3.40
2018-10-21T15:52:55.441Z,3.05
2018-10-21T15:55:24.223Z,3.67
2018-10-21T15:57:52.971Z,3.58
2018-10-21T16:00:21.923Z,4.28
2018-10-21T16:02:50.688Z,3.45
2018-10-21T16:05:19.533Z,3.42
2018-10-21T16:07:48.324Z,3.35
2018-10-21T16:10:17.157Z,4.03
2018-10-21T16:12:46.014Z,3.98
2018-10-21T16:15:16.133Z,3.62
2018-10-21T16:17:45.890Z,3.77
2018-10-21T16:20:14.933Z,4.17
2018-10-21T16:22:44.522Z,4.08
2018-10-21T16:25:14.889Z,4.30
2018-10-21T16:27:43.766Z,4.12
2018-10-21T16:30:14.239Z,3.80
2018-10-21T16:32:43.895Z,4.22
2018-10-21T16:35:13.134Z,4.90
2018-10-21T16:37:42.344Z,4.60
2018-10-21T16:40:13.637Z,4.15
2018-10-21T16:42:42.938Z,5.25
2018-10-21T16:45:12.738Z,4.30
2018-10-21T16:47:42.022Z,4.67
2018-10-21T16:50:13.197Z,3.80
2018-10-21T16:52:43.431Z,5.53
2018-10-21T16:55:13.165Z,5.10
2018-10-21T16:57:42.281Z,6.12
2018-10-21T17:00:18.640Z,5.17
2018-10-21T17:02:47.786Z,4.67
2018-10-21T17:05:16.708Z,4.37
2018-10-21T17:07:45.781Z,4.83
2018-10-21T17:10:15.131Z,5.10
2018-10-21T17:12:43.841Z,4.78
2018-10-21T17:15:13.154Z,5.28
2018-10-21T17:17:46.601Z,4.70
2018-10-21T17:20:16.782Z,5.00
2018-10-21T17:22:45.942Z,5.20
2018-10-21T17:25:15.500Z,4.95
2018-10-21T17:27:44.566Z,4.92
2018-10-21T17:30:16.507Z,4.92
2018-10-21T17:32:46.064Z,5.60
2018-10-21T17:35:15.217Z,5.37
2018-10-21T17:37:44.102Z,5.70
2018-10-21T17:40:13.686Z,5.75
2018-10-21T17:42:42.516Z,7.10
2018-10-21T17:45:13.492Z,5.85
2018-10-21T17:47:42.645Z,6.45
2018-10-21T17:50:13.383Z,5.22
2018-10-21T17:52:42.763Z,6.25
2018-10-21T17:55:12.168Z,6.10
2018-10-21T17:57:41.391Z,5.35
2018-10-21T18:00:11.761Z,5.20
2018-10-21T18:02:45.845Z,5.42
2018-10-21T18:05:15.172Z,5.87
2018-10-21T18:07:44.622Z,4.65
2018-10-21T18:10:14.019Z,4.90
2018-10-21T18:12:43.103Z,4.72
2018-10-21T18:15:12.389Z,5.37
2018-10-21T18:17:42.265Z,5.08
2018-10-21T18:20:12.261Z,4.37
2018-10-21T18:22:41.350Z,5.03
2018-10-21T18:25:10.714Z,4.95
2018-10-21T18:27:39.998Z,6.50
2018-10-21T18:30:10.374Z,5.97
2018-10-21T18:32:39.491Z,6.53
2018-10-21T18:35:10.137Z,4.95
2018-10-21T18:37:39.275Z,5.25
2018-10-21T18:40:09.367Z,4.92
2018-10-21T18:42:38.648Z,4.75
2018-10-21T18:45:11.049Z,5.37
2018-10-21T18:47:40.099Z,5.50
2018-10-21T18:50:10.861Z,5.25
2018-10-21T18:52:39.858Z,5.90
2018-10-21T18:55:09.424Z,4.97
2018-10-21T18:57:38.383Z,6.10
2018-10-21T19:00:11.578Z,5.55
2018-10-21T19:02:40.742Z,5.83
2018-10-21T19:05:10.262Z,5.70
2018-10-21T19:07:39.717Z,5.40
2018-10-21T19:10:11.092Z,5.05
2018-10-21T19:12:39.934Z,5.08
2018-10-21T19:15:10.125Z,5.92
2018-10-21T19:17:39.393Z,5.00
2018-10-21T19:20:10.310Z,5.75
2018-10-21T19:22:39.737Z,4.95
2018-10-21T19:25:10.267Z,5.53
2018-10-21T19:27:39.219Z,5.45
2018-10-21T19:30:09.226Z,5.78
2018-10-21T19:32:38.275Z,5.50
2018-10-21T19:35:08.335Z,5.00
2018-10-21T19:37:37.576Z,5.37
2018-10-21T19:40:07.463Z,4.25
2018-10-21T19:42:36.325Z,4.95
2018-10-21T19:45:06.283Z,5.05
2018-10-21T19:47:35.281Z,4.97
2018-10-21T19:50:04.583Z,4.65
2018-10-21T19:52:33.621Z,5.30
2018-10-21T19:55:02.627Z,4.65
2018-10-21T19:57:31.717Z,5.47
2018-10-21T20:00:00.732Z,5.10
2018-10-21T20:02:30.054Z,4.92
2018-10-21T20:05:04.972Z,5.28
2018-10-21T20:07:34.143Z,5.15
2018-10-21T20:10:03.435Z,6.53
2018-10-21T20:12:32.468Z,5.62
2018-10-21T20:15:01.686Z,6.50
2018-10-21T20:17:30.709Z,5.85
2018-10-21T20:19:59.667Z,6.22
2018-10-21T20:22:28.689Z,6.78
2018-10-21T20:24:57.664Z,6.37
2018-10-21T20:27:26.681Z,6.30
2018-10-21T20:29:55.487Z,7.83
2018-10-21T20:32:24.626Z,7.97
2018-10-21T20:34:53.575Z,7.15
2018-10-21T20:37:22.789Z,7.20
2018-10-21T20:39:51.778Z,7.10
2018-10-21T20:42:20.675Z,7.25
2018-10-21T20:44:49.603Z,7.60
2018-10-21T20:47:18.607Z,7.20
2018-10-21T20:49:47.523Z,5.87
2018-10-21T20:52:16.860Z,6.55
2018-10-21T20:54:47.661Z,6.37
2018-10-21T20:57:16.530Z,6.85
2018-10-21T20:59:46.609Z,6.05
2018-10-21T21:02:16.240Z,6.70
2018-10-21T21:04:45.155Z,7.03
2018-10-21T21:07:14.147Z,6.58
2018-10-21T21:09:43.080Z,6.85
2018-10-21T21:12:12.290Z,6.65
2018-10-21T21:14:41.247Z,6.22
2018-10-21T21:17:10.093Z,6.45
2018-10-21T21:19:38.869Z,6.25
2018-10-21T21:22:07.958Z,6.78
2018-10-21T21:24:36.911Z,7.20
2018-10-21T21:27:06.206Z,6.65
2018-10-21T21:29:34.978Z,6.40
2018-10-21T21:32:04.854Z,7.05
2018-10-21T21:34:33.810Z,7.17
2018-10-21T21:37:02.881Z,6.60
2018-10-21T21:39:31.734Z,6.78
2018-10-21T21:42:00.700Z,5.87
2018-10-21T21:44:30.515Z,5.85
2018-10-21T21:46:59.549Z,7.20
2018-10-21T21:49:28.590Z,6.62
2018-10-21T21:51:57.574Z,7.40
2018-10-21T21:54:26.461Z,8.38
2018-10-21T21:56:55.237Z,6.55
2018-10-21T21:59:24.442Z,6.67
2018-10-21T22:01:53.484Z,7.45
2018-10-21T22:04:22.372Z,7.30
2018-10-21T22:06:51.341Z,7.75
2018-10-21T22:09:20.304Z,7.53
2018-10-21T22:11:49.351Z,7.28
2018-10-21T22:14:18.145Z,8.20
2018-10-21T22:16:47.233Z,8.18
2018-10-21T22:19:16.535Z,6.72
2018-10-21T22:21:45.504Z,6.53
2018-10-21T22:24:14.704Z,6.55
2018-10-21T22:26:43.922Z,8.15
2018-10-21T22:29:12.958Z,8.73
2018-10-21T22:31:42.053Z,9.33
2018-10-21T22:34:11.153Z,8.05
2018-10-21T22:36:40.190Z,8.35
2018-10-21T22:39:09.106Z,8.70
2018-10-21T22:41:37.998Z,7.97
2018-10-21T22:44:06.845Z,7.55
2018-10-21T22:46:36.122Z,8.43
2018-10-21T22:49:05.492Z,6.83
2018-10-21T22:51:34.410Z,6.00
2018-10-21T22:54:03.694Z,6.78
2018-10-21T22:56:32.669Z,5.95
2018-10-21T22:59:01.633Z,6.25
2018-10-21T23:01:30.696Z,6.62
2018-10-21T23:03:59.688Z,5.95
2018-10-21T23:06:28.668Z,5.62
2018-10-21T23:08:57.793Z,8.00
2018-10-21T23:11:26.855Z,7.58
2018-10-21T23:13:55.918Z,7.30
2018-10-21T23:16:24.930Z,8.20
2018-10-21T23:19:03.701Z,7.90
2018-10-21T23:21:32.793Z,7.55
2018-10-21T23:24:01.748Z,7.65
2018-10-21T23:26:30.846Z,8.30
2018-10-21T23:28:59.866Z,8.25
2018-10-21T23:31:28.987Z,9.50
2018-10-21T23:33:58.057Z,11.12
2018-10-21T23:36:27.311Z,12.10
2018-10-21T23:38:56.434Z,11.15
2018-10-21T23:41:25.315Z,11.55
2018-10-21T23:43:54.413Z,11.10
2018-10-21T23:46:23.388Z,11.63
2018-10-21T23:48:52.536Z,12.43
2018-10-21T23:51:21.443Z,10.48
2018-10-21T23:53:50.649Z,11.35
2018-10-21T23:56:19.739Z,12.23
2018-10-21T23:58:48.781Z,12.23
